createdAt,value
2018-07-30T00:02:23.229Z,5.85
2018-07-30T00:04:52.316Z,5.37
2018-07-30T00:07:21.324Z,7.95
2018-07-30T00:09:50.388Z,5.53
2018-07-30T00:12:19.580Z,5.58
2018-07-30T00:14:48.673Z,5.93
2018-07-30T00:17:17.686Z,6.33
2018-07-30T00:19:46.715Z,8.18
2018-07-30T00:22:15.769Z,5.63
2018-07-30T00:24:44.746Z,5.95
2018-07-30T00:27:13.770Z,8.67
2018-07-30T00:29:42.776Z,5.90
2018-07-30T00:32:11.768Z,5.45
2018-07-30T00:34:40.800Z,5.73
2018-07-30T00:37:09.832Z,6.90
2018-07-30T00:39:38.829Z,7.03
2018-07-30T00:42:07.987Z,6.57
2018-07-30T00:44:37.080Z,5.90
2018-07-30T00:47:06.188Z,9.10
2018-07-30T00:49:35.233Z,5.73
2018-07-30T00:52:04.292Z,5.17
2018-07-30T00:54:33.284Z,5.80
2018-07-30T00:57:02.328Z,6.00
2018-07-30T00:59:31.344Z,6.07
2018-07-30T01:02:00.385Z,6.00
2018-07-30T01:04:29.398Z,7.00
2018-07-30T01:06:58.432Z,8.57
2018-07-30T01:09:27.453Z,6.83
2018-07-30T01:11:59.740Z,6.03
2018-07-30T01:14:28.830Z,7.33
2018-07-30T01:16:57.808Z,7.23
2018-07-30T01:19:26.851Z,5.97
2018-07-30T01:21:55.872Z,6.27
2018-07-30T01:24:24.881Z,7.20
2018-07-30T01:26:53.898Z,9.37
2018-07-30T01:29:22.929Z,5.97
2018-07-30T01:31:51.959Z,5.83
2018-07-30T01:34:21.028Z,6.20
2018-07-30T01:36:50.144Z,6.03
2018-07-30T01:39:19.163Z,8.70
2018-07-30T01:41:48.209Z,6.53
2018-07-30T01:44:17.244Z,6.00
2018-07-30T01:46:46.232Z,6.20
2018-07-30T01:49:15.242Z,11.33
2018-07-30T01:51:44.240Z,7.23
2018-07-30T01:54:13.245Z,9.33
2018-07-30T01:56:42.242Z,6.53
2018-07-30T01:59:11.641Z,6.47
2018-07-30T02:01:40.681Z,6.37
2018-07-30T02:04:09.706Z,6.70
2018-07-30T02:06:38.772Z,6.97
2018-07-30T02:09:09.809Z,6.30
2018-07-30T02:11:38.991Z,6.77
2018-07-30T02:14:08.365Z,8.47
2018-07-30T02:16:37.480Z,6.83
2018-07-30T02:19:06.549Z,6.30
2018-07-30T02:21:35.609Z,7.43
2018-07-30T02:24:04.672Z,6.77
2018-07-30T02:26:34.600Z,7.93
2018-07-30T02:29:03.700Z,7.17
2018-07-30T02:31:32.724Z,6.13
2018-07-30T02:34:01.883Z,6.17
2018-07-30T02:36:30.940Z,6.20
2018-07-30T02:39:00.093Z,8.03
2018-07-30T02:41:29.100Z,6.20
2018-07-30T02:43:58.140Z,10.00
2018-07-30T02:46:27.217Z,10.27
2018-07-30T02:48:56.225Z,6.67
2018-07-30T02:51:25.252Z,6.50
2018-07-30T02:53:54.275Z,7.50
2018-07-30T02:56:23.365Z,6.73
2018-07-30T02:58:53.181Z,11.27
2018-07-30T03:01:22.272Z,6.70
2018-07-30T03:03:51.268Z,6.20
2018-07-30T03:06:20.329Z,6.57
2018-07-30T03:08:49.394Z,6.60
2018-07-30T03:11:18.393Z,6.47
2018-07-30T03:13:47.451Z,6.67
2018-07-30T03:16:16.456Z,6.80
2018-07-30T03:18:45.485Z,6.80
2018-07-30T03:21:14.532Z,6.80
2018-07-30T03:23:43.618Z,5.97
2018-07-30T03:26:12.644Z,6.67
2018-07-30T03:28:41.690Z,6.50
2018-07-30T03:31:10.768Z,6.40
2018-07-30T03:33:39.804Z,7.47
2018-07-30T03:36:08.928Z,7.60
2018-07-30T03:38:37.983Z,7.23
2018-07-30T03:41:07.065Z,6.70
2018-07-30T03:43:36.069Z,7.17
2018-07-30T03:46:05.366Z,7.77
2018-07-30T03:48:34.436Z,7.00
2018-07-30T03:51:03.458Z,7.47
2018-07-30T03:53:32.487Z,6.97
2018-07-30T03:56:01.525Z,7.10
2018-07-30T03:58:30.659Z,8.80
2018-07-30T04:00:59.727Z,7.60
2018-07-30T04:03:28.812Z,8.77
2018-07-30T04:05:57.902Z,8.00
2018-07-30T04:08:27.019Z,7.20
2018-07-30T04:10:56.018Z,7.83
2018-07-30T04:13:25.023Z,6.80
2018-07-30T04:15:54.101Z,8.40
2018-07-30T04:18:23.108Z,7.20
2018-07-30T04:20:52.133Z,7.60
2018-07-30T04:23:21.181Z,7.43
2018-07-30T04:25:50.212Z,7.97
2018-07-30T04:28:19.371Z,7.20
2018-07-30T04:30:48.424Z,9.37
2018-07-30T04:33:17.578Z,7.20
2018-07-30T04:35:46.592Z,6.40
2018-07-30T04:38:15.613Z,6.90
2018-07-30T04:40:44.623Z,8.10
2018-07-30T04:43:13.653Z,7.67
2018-07-30T04:45:42.785Z,7.40
2018-07-30T04:48:11.817Z,7.73
2018-07-30T04:50:40.877Z,6.73
2018-07-30T04:53:09.904Z,7.33
2018-07-30T04:55:38.911Z,7.77
2018-07-30T04:58:07.963Z,7.30
2018-07-30T05:00:37.013Z,6.97
2018-07-30T05:03:06.732Z,7.00
2018-07-30T05:05:37.117Z,7.70
2018-07-30T05:08:06.257Z,9.13
2018-07-30T05:10:35.346Z,9.30
2018-07-30T05:13:04.357Z,12.03
2018-07-30T05:15:33.384Z,12.67
2018-07-30T05:18:02.421Z,8.47
2018-07-30T05:20:31.448Z,10.57
2018-07-30T05:23:00.491Z,8.67
2018-07-30T05:25:29.541Z,7.53
2018-07-30T05:27:58.616Z,10.20
2018-07-30T05:30:27.642Z,7.40
2018-07-30T05:32:56.769Z,8.08
2018-07-30T05:35:25.775Z,6.83
2018-07-30T05:37:54.883Z,10.28
2018-07-30T05:40:23.909Z,6.92
2018-07-30T05:42:52.986Z,10.10
2018-07-30T05:45:22.057Z,6.45
2018-07-30T05:47:51.053Z,6.30
2018-07-30T05:50:20.095Z,7.50
2018-07-30T05:52:49.083Z,6.42
2018-07-30T05:55:18.123Z,6.30
2018-07-30T05:57:47.139Z,6.05
2018-07-30T06:00:16.237Z,6.45
2018-07-30T06:02:45.316Z,5.90
2018-07-30T06:05:14.296Z,5.70
2018-07-30T06:07:43.404Z,6.20
2018-07-30T06:10:12.436Z,5.80
2018-07-30T06:12:41.491Z,5.78
2018-07-30T06:15:10.520Z,6.47
2018-07-30T06:17:39.525Z,6.00
2018-07-30T06:20:10.347Z,6.92
2018-07-30T06:22:39.785Z,5.87
2018-07-30T06:25:08.865Z,6.10
2018-07-30T06:27:37.986Z,5.97
2018-07-30T06:30:07.860Z,6.90
2018-07-30T06:32:37.020Z,6.00
2018-07-30T06:35:06.304Z,6.12
2018-07-30T06:37:35.539Z,7.20
2018-07-30T06:40:04.673Z,6.30
2018-07-30T06:42:33.687Z,6.78
2018-07-30T06:45:02.727Z,6.20
2018-07-30T06:47:31.715Z,6.30
2018-07-30T06:50:00.691Z,6.22
2018-07-30T06:52:29.772Z,5.90
2018-07-30T06:54:58.752Z,5.97
2018-07-30T06:57:27.754Z,6.12
2018-07-30T06:59:56.806Z,5.95
2018-07-30T07:02:25.821Z,6.87
2018-07-30T07:04:54.852Z,6.50
2018-07-30T07:07:23.903Z,6.00
2018-07-30T07:09:52.952Z,5.80
2018-07-30T07:12:21.965Z,5.72
2018-07-30T07:14:50.951Z,5.33
2018-07-30T07:17:20.016Z,5.83
2018-07-30T07:19:49.032Z,6.55
2018-07-30T07:22:18.078Z,5.42
2018-07-30T07:24:47.128Z,6.53
2018-07-30T07:27:16.185Z,5.60
2018-07-30T07:29:45.174Z,6.53
2018-07-30T07:32:14.224Z,5.80
2018-07-30T07:34:43.224Z,6.83
2018-07-30T07:37:12.223Z,5.45
2018-07-30T07:39:41.270Z,5.90
2018-07-30T07:42:10.295Z,5.67
2018-07-30T07:44:39.477Z,5.58
2018-07-30T07:47:08.621Z,6.35
2018-07-30T07:49:37.676Z,5.03
2018-07-30T07:52:06.675Z,6.92
2018-07-30T07:54:35.768Z,5.40
2018-07-30T07:57:04.832Z,5.10
2018-07-30T07:59:33.855Z,5.35
2018-07-30T08:02:02.904Z,5.37
2018-07-30T08:04:31.917Z,5.62
2018-07-30T08:07:01.034Z,6.22
2018-07-30T08:09:30.037Z,5.42
2018-07-30T08:11:59.078Z,5.08
2018-07-30T08:14:28.108Z,5.42
2018-07-30T08:16:57.142Z,4.95
2018-07-30T08:19:26.178Z,6.55
2018-07-30T08:21:55.181Z,6.97
2018-07-30T08:24:24.241Z,5.15
2018-07-30T08:26:53.239Z,7.37
2018-07-30T08:29:22.310Z,4.85
2018-07-30T08:31:51.641Z,4.42
2018-07-30T08:34:20.698Z,4.30
2018-07-30T08:36:49.816Z,5.65
2018-07-30T08:39:18.811Z,4.00
2018-07-30T08:41:47.888Z,4.87
2018-07-30T08:44:16.900Z,4.45
2018-07-30T08:46:46.148Z,4.33
2018-07-30T08:49:15.193Z,3.47
2018-07-30T08:51:44.194Z,3.45
2018-07-30T08:54:13.269Z,3.67
2018-07-30T08:56:42.278Z,4.65
2018-07-30T08:59:11.489Z,3.67
2018-07-30T09:01:40.487Z,4.12
2018-07-30T09:04:09.682Z,4.03
2018-07-30T09:06:38.675Z,3.70
2018-07-30T09:09:09.809Z,2.98
2018-07-30T09:11:39.175Z,3.05
2018-07-30T09:14:08.824Z,3.25
2018-07-30T09:16:37.821Z,3.58
2018-07-30T09:19:07.272Z,3.30
2018-07-30T09:21:36.321Z,3.22
2018-07-30T09:24:05.360Z,6.30
2018-07-30T09:26:34.359Z,3.17
2018-07-30T09:29:03.497Z,3.05
2018-07-30T09:31:32.575Z,2.70
2018-07-30T09:34:01.684Z,3.42
2018-07-30T09:36:30.785Z,2.92
2018-07-30T09:38:59.839Z,3.08
2018-07-30T09:41:28.851Z,2.90
2018-07-30T09:43:57.868Z,3.95
2018-07-30T09:46:26.872Z,4.15
2018-07-30T09:48:55.907Z,2.60
2018-07-30T09:51:24.932Z,2.60
2018-07-30T09:53:53.977Z,3.52
2018-07-30T09:56:22.980Z,2.83
2018-07-30T09:58:52.056Z,2.83
2018-07-30T10:01:26.283Z,3.25
2018-07-30T10:03:55.384Z,2.37
2018-07-30T10:06:24.450Z,3.20
2018-07-30T10:08:53.570Z,2.75
2018-07-30T10:11:22.600Z,2.62
2018-07-30T10:13:51.921Z,4.05
2018-07-30T10:16:20.967Z,3.20
2018-07-30T10:18:50.062Z,3.33
2018-07-30T10:21:19.069Z,2.67
2018-07-30T10:23:48.172Z,3.08
2018-07-30T10:26:17.247Z,3.87
2018-07-30T10:28:46.271Z,3.80
2018-07-30T10:31:15.381Z,2.95
2018-07-30T10:33:44.424Z,3.00
2018-07-30T10:36:13.409Z,4.72
2018-07-30T10:38:42.572Z,3.77
2018-07-30T10:41:12.089Z,3.62
2018-07-30T10:43:41.126Z,3.22
2018-07-30T10:46:10.191Z,4.97
2018-07-30T10:48:39.313Z,2.85
2018-07-30T10:51:08.482Z,2.85
2018-07-30T10:53:37.595Z,3.62
2018-07-30T10:56:06.636Z,2.65
2018-07-30T10:58:35.645Z,3.92
2018-07-30T11:01:04.710Z,2.42
2018-07-30T11:03:33.712Z,3.77
2018-07-30T11:06:02.747Z,3.95
2018-07-30T11:08:31.784Z,3.60
2018-07-30T11:11:00.809Z,2.62
2018-07-30T11:13:29.810Z,4.08
2018-07-30T11:15:58.874Z,2.60
2018-07-30T11:18:27.969Z,2.85
2018-07-30T11:20:56.999Z,2.70
2018-07-30T11:23:26.046Z,3.20
2018-07-30T11:25:55.218Z,2.45
2018-07-30T11:28:24.293Z,3.37
2018-07-30T11:30:53.448Z,2.98
2018-07-30T11:33:22.467Z,2.87
2018-07-30T11:35:51.526Z,2.90
2018-07-30T11:38:20.627Z,2.95
2018-07-30T11:40:49.773Z,5.25
2018-07-30T11:43:18.811Z,4.00
2018-07-30T11:45:47.871Z,3.30
2018-07-30T11:48:17.168Z,3.22
2018-07-30T11:50:46.224Z,3.02
2018-07-30T11:53:15.278Z,3.02
2018-07-30T11:55:44.338Z,2.65
2018-07-30T11:58:13.504Z,2.77
2018-07-30T12:00:42.568Z,3.33
2018-07-30T12:03:11.815Z,5.28
2018-07-30T12:05:40.901Z,3.08
2018-07-30T12:08:09.980Z,2.80
2018-07-30T12:10:39.074Z,2.95
2018-07-30T12:13:08.196Z,3.10
2018-07-30T12:15:37.280Z,4.75
2018-07-30T12:18:06.405Z,2.20
2018-07-30T12:20:35.480Z,3.08
2018-07-30T12:23:04.532Z,3.10
2018-07-30T12:25:33.657Z,2.58
2018-07-30T12:28:02.706Z,2.50
2018-07-30T12:30:31.760Z,2.50
2018-07-30T12:33:00.752Z,2.95
2018-07-30T12:35:30.354Z,2.52
2018-07-30T12:38:00.068Z,3.37
2018-07-30T12:40:33.336Z,2.10
2018-07-30T12:43:22.208Z,2.30
2018-07-30T12:45:51.262Z,2.67
2018-07-30T12:48:20.281Z,2.45
2018-07-30T12:50:49.664Z,3.37
2018-07-30T12:53:18.778Z,3.10
2018-07-30T12:55:47.820Z,2.47
2018-07-30T12:58:16.829Z,2.25
2018-07-30T13:00:45.950Z,2.72
2018-07-30T13:03:15.028Z,2.50
2018-07-30T13:05:44.075Z,3.60
2018-07-30T13:08:13.206Z,3.42
2018-07-30T13:10:42.436Z,2.85
2018-07-30T13:13:11.581Z,2.33
2018-07-30T13:15:40.708Z,2.27
2018-07-30T13:18:09.813Z,2.92
2018-07-30T13:20:39.005Z,2.60
2018-07-30T13:23:08.204Z,2.42
2018-07-30T13:25:38.187Z,2.60
2018-07-30T13:28:08.405Z,3.85
2018-07-30T13:30:37.585Z,2.98
2018-07-30T13:33:06.897Z,3.22
2018-07-30T13:38:10.760Z,3.05
2018-07-30T13:40:39.806Z,2.60
2018-07-30T13:43:08.885Z,2.65
2018-07-30T13:45:38.057Z,2.40
2018-07-30T13:48:07.236Z,3.77
2018-07-30T13:50:36.440Z,3.90
2018-07-30T13:53:05.712Z,2.67
2018-07-30T13:55:34.914Z,3.95
2018-07-30T13:58:04.092Z,3.10
2018-07-30T14:00:33.208Z,3.60
2018-07-30T14:03:02.441Z,2.80
2018-07-30T14:05:31.552Z,3.08
2018-07-30T14:08:00.717Z,3.00
2018-07-30T14:10:29.848Z,2.55
2018-07-30T14:12:59.221Z,2.67
2018-07-30T14:15:28.491Z,2.70
2018-07-30T14:17:58.690Z,2.67
2018-07-30T14:20:27.796Z,2.45
2018-07-30T14:22:57.286Z,2.58
2018-07-30T14:25:26.634Z,4.45
2018-07-30T14:27:55.826Z,3.67
2018-07-30T14:30:25.027Z,2.65
2018-07-30T14:32:54.476Z,4.15
2018-07-30T14:35:23.677Z,4.37
2018-07-30T14:37:52.844Z,2.90
2018-07-30T14:40:22.056Z,2.60
2018-07-30T14:42:51.221Z,4.97
2018-07-30T14:45:20.333Z,3.08
2018-07-30T14:47:51.446Z,2.55
2018-07-30T14:50:20.724Z,2.67
2018-07-30T14:52:49.907Z,3.60
2018-07-30T14:55:19.195Z,2.62
2018-07-30T14:57:48.593Z,2.75
2018-07-30T15:00:17.840Z,2.65
2018-07-30T15:02:47.552Z,4.20
2018-07-30T15:05:23.711Z,2.83
2018-07-30T15:07:53.436Z,2.55
2018-07-30T15:10:22.840Z,2.77
2018-07-30T15:12:52.013Z,2.85
2018-07-30T15:15:21.209Z,3.33
2018-07-30T15:23:37.549Z,2.60
2018-07-30T15:26:06.796Z,2.40
2018-07-30T15:28:35.996Z,2.37
2018-07-30T15:31:05.128Z,2.67
2018-07-30T15:33:36.096Z,3.70
2018-07-30T15:36:05.756Z,3.33
2018-07-30T15:38:34.920Z,2.42
2018-07-30T15:41:04.013Z,2.37
2018-07-30T15:43:33.009Z,2.60
2018-07-30T15:46:02.060Z,4.47
2018-07-30T15:48:31.032Z,2.50
2018-07-30T15:51:00.068Z,3.83
2018-07-30T15:53:29.059Z,2.90
2018-07-30T15:55:58.144Z,2.77
2018-07-30T15:58:27.234Z,2.87
2018-07-30T16:00:56.260Z,3.60
2018-07-30T16:03:26.263Z,5.22
2018-07-30T16:05:55.389Z,11.28
2018-07-30T16:08:26.182Z,6.67
2018-07-30T16:11:17.200Z,3.98
2018-07-30T16:14:02.522Z,7.40
2018-07-30T16:16:32.253Z,3.25
2018-07-30T16:19:01.323Z,11.35
2018-07-30T16:21:30.378Z,18.98
2018-07-30T16:23:59.402Z,5.40
2018-07-30T16:26:28.545Z,3.85
2018-07-30T16:28:58.702Z,4.55
2018-07-30T16:31:27.862Z,7.08
2018-07-30T16:33:57.120Z,2.95
2018-07-30T16:36:26.155Z,6.15
2018-07-30T16:38:55.492Z,2.77
2018-07-30T16:41:25.053Z,3.65
2018-07-30T16:43:54.190Z,2.80
2018-07-30T16:46:23.254Z,3.27
2018-07-30T16:48:52.342Z,4.72
2018-07-30T16:51:21.433Z,2.92
2018-07-30T16:53:50.450Z,3.15
2018-07-30T16:56:19.643Z,3.10
2018-07-30T16:58:48.747Z,3.37
2018-07-30T17:01:17.823Z,2.33
2018-07-30T17:03:46.874Z,5.67
2018-07-30T17:06:16.145Z,2.45
2018-07-30T17:08:45.171Z,2.45
2018-07-30T17:11:14.308Z,5.20
2018-07-30T17:13:43.398Z,3.52
2018-07-30T17:16:12.450Z,2.87
2018-07-30T17:18:41.774Z,3.02
2018-07-30T17:21:10.873Z,5.03
2018-07-30T17:23:40.059Z,4.00
2018-07-30T17:26:09.107Z,6.22
2018-07-30T17:28:38.306Z,2.60
2018-07-30T17:31:07.346Z,2.65
2018-07-30T17:33:36.421Z,2.62
2018-07-30T17:36:05.566Z,3.17
2018-07-30T17:38:34.624Z,2.45
2018-07-30T17:41:03.670Z,3.95
2018-07-30T17:43:32.827Z,13.55
2018-07-30T17:46:01.941Z,25.40
2018-07-30T17:48:31.049Z,16.23
2018-07-30T17:51:00.150Z,9.85
2018-07-30T17:53:29.173Z,9.43
2018-07-30T17:55:58.305Z,4.08
2018-07-30T17:58:27.422Z,11.97
2018-07-30T18:00:56.463Z,9.55
2018-07-30T18:03:25.985Z,4.75
2018-07-30T18:05:55.321Z,4.67
2018-07-30T18:08:24.504Z,4.22
2018-07-30T18:10:56.256Z,6.12
2018-07-30T18:13:25.407Z,7.12
2018-07-30T18:15:54.550Z,4.30
2018-07-30T18:18:23.612Z,5.22
2018-07-30T18:20:53.039Z,4.12
2018-07-30T18:23:22.119Z,4.03
2018-07-30T18:25:51.541Z,4.08
2018-07-30T18:28:20.597Z,4.55
2018-07-30T18:30:49.662Z,5.22
2018-07-30T18:33:18.775Z,8.63
2018-07-30T18:35:48.042Z,6.15
2018-07-30T18:38:17.221Z,4.33
2018-07-30T18:40:46.326Z,8.28
2018-07-30T18:43:15.433Z,11.57
2018-07-30T18:45:44.485Z,37.95
2018-07-30T18:48:13.609Z,129.10
2018-07-30T18:50:42.641Z,318.97
2018-07-30T18:53:11.798Z,150.90
2018-07-30T18:55:40.941Z,272.07
2018-07-30T18:58:10.109Z,187.07
2018-07-30T19:00:39.214Z,359.48
2018-07-30T19:03:08.427Z,143.20
2018-07-30T19:05:37.596Z,134.32
2018-07-30T19:08:07.086Z,72.25
2018-07-30T19:10:36.335Z,34.45
2018-07-30T19:13:05.448Z,66.25
2018-07-30T19:15:34.586Z,63.78
2018-07-30T19:18:03.589Z,55.98
2018-07-30T19:20:32.670Z,18.77
2018-07-30T19:23:02.299Z,14.87
2018-07-30T19:25:31.330Z,5.97
2018-07-30T19:28:00.455Z,6.62
2018-07-30T19:30:29.469Z,5.28
2018-07-30T19:32:58.499Z,9.98
2018-07-30T19:35:27.609Z,5.10
2018-07-30T19:37:56.727Z,4.62
2018-07-30T19:40:25.811Z,6.58
2018-07-30T19:42:54.873Z,9.13
2018-07-30T19:45:24.014Z,5.80
2018-07-30T19:47:53.122Z,4.75
2018-07-30T19:50:22.192Z,5.33
2018-07-30T19:52:51.227Z,6.58
2018-07-30T19:55:20.316Z,4.30
2018-07-30T19:57:49.627Z,5.22
2018-07-30T20:00:18.810Z,6.85
2018-07-30T20:02:47.957Z,6.33
2018-07-30T20:05:17.060Z,5.78
2018-07-30T20:07:46.134Z,4.58
2018-07-30T20:10:15.265Z,4.53
2018-07-30T20:12:44.324Z,4.70
2018-07-30T20:15:13.495Z,8.18
2018-07-30T20:17:42.940Z,6.45
2018-07-30T20:20:13.999Z,5.72
2018-07-30T20:22:43.310Z,8.15
2018-07-30T20:25:13.058Z,4.78
2018-07-30T20:27:42.834Z,4.10
2018-07-30T20:30:11.964Z,5.65
2018-07-30T20:32:41.261Z,7.28
2018-07-30T20:35:10.316Z,4.20
2018-07-30T20:37:39.409Z,7.15
2018-07-30T20:40:08.486Z,6.03
2018-07-30T20:42:37.594Z,3.80
2018-07-30T20:45:06.761Z,5.85
2018-07-30T20:47:35.828Z,9.03
2018-07-30T20:50:05.536Z,7.28
2018-07-30T20:52:34.794Z,6.78
2018-07-30T20:55:03.889Z,6.62
2018-07-30T20:57:32.952Z,4.42
2018-07-30T21:00:02.075Z,6.60
2018-07-30T21:02:31.134Z,5.03
2018-07-30T21:05:00.294Z,4.40
2018-07-30T21:07:29.448Z,3.80
2018-07-30T21:09:58.577Z,5.50
2018-07-30T21:12:27.579Z,5.05
2018-07-30T21:14:56.649Z,5.67
2018-07-30T21:17:25.994Z,4.55
2018-07-30T21:19:55.140Z,6.70
2018-07-30T21:22:24.241Z,4.83
2018-07-30T21:24:53.980Z,6.60
2018-07-30T21:27:23.404Z,5.37
2018-07-30T21:29:52.385Z,5.35
2018-07-30T21:32:21.470Z,4.20
2018-07-30T21:34:50.635Z,5.65
2018-07-30T21:37:19.713Z,3.92
2018-07-30T21:39:48.862Z,5.67
2018-07-30T21:42:17.958Z,4.85
2018-07-30T21:44:47.045Z,5.85
2018-07-30T21:47:16.082Z,4.08
2018-07-30T21:49:45.264Z,4.00
2018-07-30T21:52:14.593Z,7.17
2018-07-30T21:54:43.688Z,4.03
2018-07-30T21:57:12.761Z,5.45
2018-07-30T21:59:41.735Z,5.87
2018-07-30T22:02:10.907Z,5.20
2018-07-30T22:04:39.897Z,6.55
2018-07-30T22:07:08.953Z,6.58
2018-07-30T22:09:38.037Z,7.45
2018-07-30T22:12:08.411Z,5.28
2018-07-30T22:14:37.398Z,5.75
2018-07-30T22:17:06.866Z,6.53
2018-07-30T22:19:35.995Z,5.87
2018-07-30T22:22:04.973Z,3.92
2018-07-30T22:24:34.084Z,5.33
2018-07-30T22:27:03.139Z,5.75
2018-07-30T22:29:32.357Z,4.40
2018-07-30T22:32:01.378Z,4.40
2018-07-30T22:34:30.982Z,6.03
2018-07-30T22:37:00.161Z,4.10
2018-07-30T22:39:29.331Z,5.17
2018-07-30T22:41:59.289Z,4.87
2018-07-30T22:44:28.313Z,4.90
2018-07-30T22:46:57.546Z,4.42
2018-07-30T22:49:26.590Z,4.90
2018-07-30T22:51:55.585Z,5.07
2018-07-30T22:54:24.684Z,4.70
2018-07-30T22:56:53.856Z,4.40
2018-07-30T22:59:22.845Z,4.37
2018-07-30T23:01:51.868Z,5.87
2018-07-30T23:04:20.868Z,5.33
2018-07-30T23:06:50.026Z,5.87
2018-07-30T23:09:19.075Z,4.43
2018-07-30T23:11:48.295Z,4.00
2018-07-30T23:14:17.346Z,4.65
2018-07-30T23:16:46.479Z,4.30
2018-07-30T23:19:15.526Z,5.73
2018-07-30T23:21:44.519Z,5.93
2018-07-30T23:24:14.346Z,4.77
2018-07-30T23:26:43.349Z,4.90
2018-07-30T23:29:12.399Z,7.47
2018-07-30T23:31:41.588Z,5.13
2018-07-30T23:34:10.871Z,8.70
2018-07-30T23:36:39.971Z,5.83
2018-07-30T23:39:11.265Z,7.33
2018-07-30T23:41:40.679Z,6.17
2018-07-30T23:44:09.697Z,5.57
2018-07-30T23:46:38.749Z,6.13
2018-07-30T23:49:07.734Z,4.83
2018-07-30T23:51:36.769Z,7.83
2018-07-30T23:54:05.791Z,6.40
2018-07-30T23:56:34.781Z,5.23
2018-07-30T23:59:02.826Z,4.97
